Time;durP1;ratioP1;P1;durP2;ratioP2;P2;SDS_P1;SDS_P2;PMS_P1;PMS_P2;Temp;Humidity;BMP_temperature;BMP_pressure;BME280_temperature;BME280_humidity;BME280_pressure;Samples;Min_cycle;Max_cycle;Signal;HPM_P1;HPM_P2
2023/04/10 00:00:24;;;;;;;6.00;3.72;;;;;;;;;;4950548;28;20561;-77
2023/04/10 00:02:50;;;;;;;5.65;3.35;;;;;;;;;;4968254;28;20027;-73
2023/04/10 00:05:16;;;;;;;5.07;3.50;;;;;;;;;;4968318;28;20022;-73
2023/04/10 00:07:42;;;;;;;6.63;3.45;;;;;;;;;;4967671;28;20499;-78
2023/04/10 00:10:08;;;;;;;5.97;3.53;;;;;;;;;;4968092;28;20139;-77
2023/04/10 00:12:36;;;;;;;3.75;2.58;;;;;;;;;;4966928;28;20419;-78
2023/04/10 00:15:03;;;;;;;8.50;3.85;;;;;;;;;;4960227;28;20034;-77
2023/04/10 00:17:29;;;;;;;8.55;4.28;;;;;;;;;;4973277;28;20122;-79
2023/04/10 00:19:55;;;;;;;6.47;4.32;;;;;;;;;;4955883;28;20106;-78
2023/04/10 00:22:21;;;;;;;7.65;4.10;;;;;;;;;;4972702;28;20081;-79
2023/04/10 00:24:47;;;;;;;8.57;4.38;;;;;;;;;;4955184;28;20027;-79
2023/04/10 00:27:13;;;;;;;9.02;4.03;;;;;;;;;;4955271;28;20098;-79
2023/04/10 00:29:39;;;;;;;6.85;3.78;;;;;;;;;;4975149;28;20549;-79
2023/04/10 00:32:05;;;;;;;8.55;4.30;;;;;;;;;;4975791;28;20039;-79
2023/04/10 00:34:31;;;;;;;6.97;4.05;;;;;;;;;;4975966;28;20057;-79
2023/04/10 00:36:58;;;;;;;8.70;4.20;;;;;;;;;;4976591;28;20106;-79
2023/04/10 00:39:24;;;;;;;7.72;4.55;;;;;;;;;;4976962;28;20023;-80
2023/04/10 00:41:50;;;;;;;8.32;4.18;;;;;;;;;;4977486;28;20023;-77
2023/04/10 00:44:16;;;;;;;7.47;3.78;;;;;;;;;;4976722;28;20090;-79
2023/04/10 00:46:42;;;;;;;8.18;4.45;;;;;;;;;;4976067;28;20034;-79
2023/04/10 00:49:08;;;;;;;7.65;4.50;;;;;;;;;;4976293;28;20030;-78
2023/04/10 00:51:36;;;;;;;8.52;4.25;;;;;;;;;;4976819;28;20066;-79
2023/04/10 00:54:02;;;;;;;7.22;3.90;;;;;;;;;;4958791;28;20118;-80
2023/04/10 00:56:31;;;;;;;5.40;3.83;;;;;;;;;;4958914;28;20106;-78
2023/04/10 00:58:57;;;;;;;7.50;4.85;;;;;;;;;;4977025;28;20023;-79
2023/04/10 01:01:23;;;;;;;8.55;3.63;;;;;;;;;;4976770;28;20023;-79
2023/04/10 01:03:49;;;;;;;7.65;3.90;;;;;;;;;;4977090;28;20030;-80
2023/04/10 01:06:33;;;;;;;6.32;3.45;;;;;;;;;;4958514;28;20063;-78
2023/04/10 01:09:03;;;;;;;8.45;4.40;;;;;;;;;;4976981;28;20037;-77
2023/04/10 01:11:42;;;;;;;6.80;3.78;;;;;;;;;;4976856;28;20047;-80
2023/04/10 01:14:15;;;;;;;7.13;4.20;;;;;;;;;;4957880;28;20038;-79
2023/04/10 01:16:53;;;;;;;6.78;3.90;;;;;;;;;;4958471;28;20419;-78
2023/04/10 01:19:44;;;;;;;5.82;3.65;;;;;;;;;;4977275;28;20356;-79
2023/04/10 01:22:13;;;;;;;7.85;4.25;;;;;;;;;;4977213;28;20546;-80
2023/04/10 01:24:48;;;;;;;5.30;3.72;;;;;;;;;;4977710;28;20027;-78
2023/04/10 01:27:15;;;;;;;5.80;3.00;;;;;;;;;;4978198;28;20255;-78
2023/04/10 01:29:46;;;;;;;6.63;3.45;;;;;;;;;;4978347;28;20054;-78
2023/04/10 01:32:13;;;;;;;5.50;4.15;;;;;;;;;;4959703;28;20045;-76
2023/04/10 01:34:41;;;;;;;6.00;3.08;;;;;;;;;;4958120;28;20321;-76
2023/04/10 01:37:16;;;;;;;4.65;3.25;;;;;;;;;;4974814;28;20034;-74
2023/04/10 01:39:43;;;;;;;4.47;3.45;;;;;;;;;;4961448;28;20055;-74
2023/04/10 01:42:10;;;;;;;7.20;3.60;;;;;;;;;;4956631;28;20023;-77
2023/04/10 01:44:37;;;;;;;6.32;3.70;;;;;;;;;;4956934;29;20050;-79
2023/04/10 01:47:05;;;;;;;7.32;3.17;;;;;;;;;;4970228;28;20030;-76
2023/04/10 01:49:31;;;;;;;4.57;2.97;;;;;;;;;;4975537;28;20027;-76
2023/04/10 01:51:58;;;;;;;8.68;4.25;;;;;;;;;;4976539;28;20049;-79
2023/04/10 01:54:28;;;;;;;8.68;4.43;;;;;;;;;;4976740;28;20023;-78
2023/04/10 01:56:55;;;;;;;6.88;3.55;;;;;;;;;;4968114;28;20031;-77
2023/04/10 01:59:21;;;;;;;7.40;4.15;;;;;;;;;;4939855;29;20023;-77
2023/04/10 02:01:47;;;;;;;7.72;3.53;;;;;;;;;;4957579;29;20432;-79
2023/04/10 02:04:13;;;;;;;5.20;3.53;;;;;;;;;;4975017;28;20379;-79
2023/04/10 02:06:42;;;;;;;6.70;3.67;;;;;;;;;;4959822;28;20019;-79
2023/04/10 02:09:09;;;;;;;9.02;3.13;;;;;;;;;;4977874;28;20019;-78
2023/04/10 02:11:38;;;;;;;10.60;4.18;;;;;;;;;;4976369;28;20054;-75
2023/04/10 02:14:07;;;;;;;9.18;3.97;;;;;;;;;;4952085;28;20031;-80
2023/04/10 02:16:34;;;;;;;5.43;3.70;;;;;;;;;;4959075;28;20031;-80
2023/04/10 02:19:01;;;;;;;5.80;4.20;;;;;;;;;;4967435;28;20019;-76
2023/04/10 02:21:27;;;;;;;9.52;3.85;;;;;;;;;;4995175;28;20026;-76
2023/04/10 02:23:55;;;;;;;7.22;3.85;;;;;;;;;;4997489;28;20325;-78
2023/04/10 02:26:21;;;;;;;6.57;3.58;;;;;;;;;;4979957;28;20383;-77
2023/04/10 02:28:47;;;;;;;4.72;3.28;;;;;;;;;;4979018;28;20025;-81
2023/04/10 02:31:13;;;;;;;7.60;3.67;;;;;;;;;;4996087;28;20037;-76
2023/04/10 02:33:39;;;;;;;6.10;3.33;;;;;;;;;;4997004;28;20561;-78
2023/04/10 02:36:06;;;;;;;8.60;4.38;;;;;;;;;;4996217;28;20022;-77
2023/04/10 02:38:32;;;;;;;8.75;4.22;;;;;;;;;;4998061;28;20022;-73
2023/04/10 02:40:58;;;;;;;7.85;4.22;;;;;;;;;;4998063;28;20034;-77
2023/04/10 02:43:24;;;;;;;8.77;3.92;;;;;;;;;;4996706;28;20038;-75
2023/04/10 02:45:50;;;;;;;5.30;3.63;;;;;;;;;;4997225;28;20029;-77
2023/04/10 02:48:16;;;;;;;5.60;3.67;;;;;;;;;;4997674;28;20034;-75
2023/04/10 02:50:44;;;;;;;7.82;3.67;;;;;;;;;;4996326;28;20034;-78
2023/04/10 02:53:11;;;;;;;6.53;4.10;;;;;;;;;;4996621;28;20156;-77
2023/04/10 02:55:37;;;;;;;6.25;4.28;;;;;;;;;;4997676;28;20241;-76
2023/04/10 02:58:03;;;;;;;9.35;4.13;;;;;;;;;;4998790;28;20581;-77
2023/04/10 03:00:30;;;;;;;7.13;3.92;;;;;;;;;;4980444;28;20030;-76
2023/04/10 03:02:56;;;;;;;7.82;4.82;;;;;;;;;;4995164;28;20026;-72
2023/04/10 03:05:22;;;;;;;6.78;3.97;;;;;;;;;;4978015;28;20081;-78
2023/04/10 03:07:48;;;;;;;6.82;3.53;;;;;;;;;;4979324;28;20022;-80
2023/04/10 03:10:14;;;;;;;18.13;3.85;;;;;;;;;;4998481;28;20058;-77
2023/04/10 03:12:40;;;;;;;8.68;3.35;;;;;;;;;;4981943;28;20465;-79
2023/04/10 03:15:06;;;;;;;9.32;4.53;;;;;;;;;;4981399;28;20019;-80
2023/04/10 03:17:32;;;;;;;10.60;3.95;;;;;;;;;;4980977;28;20034;-78
2023/04/10 03:19:58;;;;;;;8.60;4.20;;;;;;;;;;4999113;28;20026;-79
2023/04/10 03:22:26;;;;;;;6.80;4.00;;;;;;;;;;4980144;28;20026;-78
2023/04/10 03:24:52;;;;;;;6.22;3.45;;;;;;;;;;4998174;28;20025;-78
2023/04/10 03:27:18;;;;;;;8.73;5.28;;;;;;;;;;4977198;28;20023;-76
2023/04/10 03:29:44;;;;;;;6.68;3.83;;;;;;;;;;4993762;28;20053;-74
2023/04/10 03:32:10;;;;;;;8.27;4.53;;;;;;;;;;4975847;28;20121;-72
2023/04/10 03:34:36;;;;;;;5.60;4.00;;;;;;;;;;4993230;28;20517;-78
2023/04/10 03:37:02;;;;;;;6.45;3.47;;;;;;;;;;4992837;28;20069;-73
2023/04/10 03:39:28;;;;;;;7.15;3.78;;;;;;;;;;4992618;28;20105;-73
2023/04/10 03:41:54;;;;;;;6.03;3.30;;;;;;;;;;4993809;28;20516;-80
2023/04/10 03:44:21;;;;;;;7.95;3.88;;;;;;;;;;4994869;28;20139;-78
2023/04/10 03:46:47;;;;;;;8.23;3.47;;;;;;;;;;4976661;28;20026;-77
2023/04/10 03:49:15;;;;;;;8.68;4.53;;;;;;;;;;4976688;28;20022;-80
2023/04/10 03:51:41;;;;;;;5.88;4.07;;;;;;;;;;4976796;28;20061;-78
2023/04/10 03:54:07;;;;;;;8.93;4.05;;;;;;;;;;4993444;28;20109;-76
2023/04/10 03:56:33;;;;;;;9.52;4.60;;;;;;;;;;4996007;28;20057;-78
2023/04/10 03:58:59;;;;;;;6.72;3.58;;;;;;;;;;4995740;28;20104;-79
2023/04/10 04:01:25;;;;;;;9.25;4.70;;;;;;;;;;4996037;28;20026;-78
2023/04/10 04:03:51;;;;;;;10.02;4.10;;;;;;;;;;4994678;28;20022;-78
2023/04/10 04:06:17;;;;;;;12.38;4.55;;;;;;;;;;4994795;28;20031;-78
2023/04/10 04:08:43;;;;;;;6.93;3.97;;;;;;;;;;4994814;28;20026;-78
2023/04/10 04:11:10;;;;;;;5.85;4.28;;;;;;;;;;4994850;28;20133;-80
2023/04/10 04:13:36;;;;;;;10.32;4.63;;;;;;;;;;4994959;28;20046;-79
2023/04/10 04:16:02;;;;;;;10.07;4.38;;;;;;;;;;4995457;28;20030;-79
2023/04/10 04:18:28;;;;;;;8.80;4.47;;;;;;;;;;4977001;28;20026;-79
2023/04/10 04:20:54;;;;;;;8.50;4.43;;;;;;;;;;4993740;28;20027;-79
2023/04/10 04:23:20;;;;;;;9.15;3.97;;;;;;;;;;4994250;28;20033;-77
2023/04/10 04:25:46;;;;;;;9.25;4.35;;;;;;;;;;4995620;28;20022;-77
2023/04/10 04:28:14;;;;;;;7.10;3.97;;;;;;;;;;4995588;28;20026;-80
2023/04/10 04:30:40;;;;;;;10.85;4.60;;;;;;;;;;4978112;28;20037;-79
2023/04/10 04:33:06;;;;;;;9.35;4.15;;;;;;;;;;4977492;28;20030;-80
2023/04/10 04:35:32;;;;;;;6.53;3.65;;;;;;;;;;4976807;28;20030;-79
2023/04/10 04:37:58;;;;;;;10.20;4.47;;;;;;;;;;4976586;28;20033;-80
2023/04/10 04:40:24;;;;;;;9.35;4.97;;;;;;;;;;4994348;28;20823;-79
2023/04/10 04:42:50;;;;;;;7.85;4.72;;;;;;;;;;4993685;28;20073;-79
2023/04/10 04:45:16;;;;;;;7.43;4.20;;;;;;;;;;4994686;28;20541;-79
2023/04/10 04:47:42;;;;;;;9.10;4.90;;;;;;;;;;4994621;28;20033;-79
2023/04/10 04:50:09;;;;;;;9.45;5.03;;;;;;;;;;4976272;28;20038;-78
2023/04/10 04:52:35;;;;;;;7.80;4.47;;;;;;;;;;4975753;28;20026;-79
2023/04/10 04:55:01;;;;;;;12.88;6.03;;;;;;;;;;4975534;28;20062;-76
2023/04/10 04:57:27;;;;;;;8.68;4.75;;;;;;;;;;4994916;28;20022;-78
2023/04/10 04:59:53;;;;;;;9.95;5.32;;;;;;;;;;4976433;28;20037;-79
2023/04/10 05:02:21;;;;;;;8.02;4.22;;;;;;;;;;4994398;28;20054;-76
2023/04/10 05:04:47;;;;;;;7.20;4.13;;;;;;;;;;4976645;28;20148;-75
2023/04/10 05:07:13;;;;;;;6.88;4.35;;;;;;;;;;4978087;28;20030;-78
2023/04/10 05:09:40;;;;;;;8.30;5.10;;;;;;;;;;4977637;28;20097;-75
2023/04/10 05:12:06;;;;;;;6.60;4.43;;;;;;;;;;4977821;28;20482;-80
2023/04/10 05:14:32;;;;;;;9.48;4.68;;;;;;;;;;4957356;28;20114;-78
2023/04/10 05:16:58;;;;;;;8.10;4.40;;;;;;;;;;4956204;28;20024;-78
2023/04/10 05:19:24;;;;;;;8.20;4.25;;;;;;;;;;4939187;29;20051;-77
2023/04/10 05:21:50;;;;;;;7.80;4.13;;;;;;;;;;4955662;28;20027;-75
2023/04/10 05:24:16;;;;;;;7.85;4.13;;;;;;;;;;4955788;28;20028;-78
2023/04/10 05:26:42;;;;;;;9.55;5.18;;;;;;;;;;4938344;29;20042;-76
2023/04/10 05:29:08;;;;;;;11.65;5.43;;;;;;;;;;4956171;28;20041;-78
2023/04/10 05:31:34;;;;;;;7.70;4.25;;;;;;;;;;4936405;28;20512;-78
2023/04/10 05:34:00;;;;;;;7.88;4.78;;;;;;;;;;4953568;28;20030;-79
2023/04/10 05:36:26;;;;;;;12.52;5.50;;;;;;;;;;4937559;29;20118;-79
2023/04/10 05:38:52;;;;;;;12.02;5.82;;;;;;;;;;4937844;29;20110;-78
2023/04/10 05:41:18;;;;;;;8.85;4.72;;;;;;;;;;4955041;28;20059;-77
2023/04/10 05:43:44;;;;;;;11.95;5.75;;;;;;;;;;4938337;29;20115;-78
2023/04/10 05:46:10;;;;;;;10.25;4.40;;;;;;;;;;4955426;28;20028;-80
2023/04/10 05:48:36;;;;;;;14.63;6.07;;;;;;;;;;4954866;28;20135;-78
2023/04/10 05:51:02;;;;;;;7.20;4.32;;;;;;;;;;4954465;28;20039;-75
2023/04/10 05:53:32;;;;;;;8.45;4.35;;;;;;;;;;4954491;28;20583;-80
2023/04/10 05:55:58;;;;;;;9.13;4.32;;;;;;;;;;4953865;28;20357;-78
2023/04/10 05:58:27;;;;;;;8.75;4.53;;;;;;;;;;4954200;28;20277;-76
2023/04/10 06:00:55;;;;;;;8.05;4.10;;;;;;;;;;4936420;28;20093;-75
2023/04/10 06:03:21;;;;;;;9.52;4.28;;;;;;;;;;4953903;28;20028;-74
2023/04/10 06:05:47;;;;;;;7.78;4.32;;;;;;;;;;4955016;28;20069;-77
2023/04/10 06:08:13;;;;;;;7.90;4.03;;;;;;;;;;4938588;29;20019;-78
2023/04/10 06:10:39;;;;;;;7.10;4.55;;;;;;;;;;4956930;28;20052;-80
2023/04/10 06:13:06;;;;;;;8.57;5.00;;;;;;;;;;4958612;28;20047;-77
2023/04/10 06:15:32;;;;;;;6.88;4.57;;;;;;;;;;4958053;28;20027;-80
2023/04/10 06:17:58;;;;;;;9.57;5.45;;;;;;;;;;4959894;28;20039;-77
2023/04/10 06:20:24;;;;;;;9.02;4.47;;;;;;;;;;4942454;29;20126;-77
2023/04/10 06:22:50;;;;;;;9.65;4.53;;;;;;;;;;4961036;28;20111;-76
2023/04/10 06:25:18;;;;;;;9.90;5.03;;;;;;;;;;4962767;28;20114;-73
2023/04/10 06:27:44;;;;;;;9.27;4.60;;;;;;;;;;4961806;28;20023;-74
2023/04/10 06:30:10;;;;;;;7.95;4.22;;;;;;;;;;4961746;28;20061;-73
2023/04/10 06:32:36;;;;;;;7.00;4.60;;;;;;;;;;4961429;28;20047;-73
2023/04/10 06:35:02;;;;;;;9.45;4.35;;;;;;;;;;4959202;28;20796;-73
2023/04/10 06:37:31;;;;;;;7.05;4.47;;;;;;;;;;4938461;28;20058;-74
2023/04/10 06:40:03;;;;;;;6.95;4.03;;;;;;;;;;4954863;28;20388;-74
2023/04/10 06:42:29;;;;;;;8.00;4.30;;;;;;;;;;4954360;28;20026;-73
2023/04/10 06:44:55;;;;;;;7.25;4.70;;;;;;;;;;4955101;28;20015;-74
2023/04/10 06:47:21;;;;;;;5.82;4.30;;;;;;;;;;4956355;28;20047;-74
2023/04/10 06:49:47;;;;;;;9.82;4.88;;;;;;;;;;4956117;28;20030;-78
2023/04/10 06:52:14;;;;;;;6.40;3.78;;;;;;;;;;4938548;28;20039;-73
2023/04/10 06:54:40;;;;;;;8.32;4.88;;;;;;;;;;4955377;28;20106;-77
2023/04/10 06:57:06;;;;;;;7.43;4.22;;;;;;;;;;4956325;28;20023;-73
2023/04/10 06:59:34;;;;;;;7.13;4.63;;;;;;;;;;4955540;28;20476;-73
2023/04/10 07:02:00;;;;;;;6.88;4.32;;;;;;;;;;4938153;28;20034;-78
2023/04/10 07:04:26;;;;;;;6.70;4.60;;;;;;;;;;4957574;28;20102;-74
2023/04/10 07:06:52;;;;;;;6.97;5.35;;;;;;;;;;4956391;28;20656;-79
2023/04/10 07:09:18;;;;;;;7.50;4.18;;;;;;;;;;4969857;28;20027;-78
2023/04/10 07:11:44;;;;;;;6.68;4.40;;;;;;;;;;4967883;28;20064;-76
2023/04/10 07:14:11;;;;;;;5.45;3.67;;;;;;;;;;4970023;28;20511;-73
2023/04/10 07:16:37;;;;;;;10.27;5.75;;;;;;;;;;4968384;28;20034;-72
2023/04/10 07:19:03;;;;;;;5.78;4.20;;;;;;;;;;4970131;28;20484;-74
2023/04/10 07:21:29;;;;;;;6.78;4.97;;;;;;;;;;4968549;28;20038;-73
2023/04/10 07:23:55;;;;;;;6.38;3.95;;;;;;;;;;4949910;29;20078;-72
2023/04/10 07:26:21;;;;;;;7.03;4.40;;;;;;;;;;4960021;28;20423;-73
2023/04/10 07:28:47;;;;;;;7.63;4.82;;;;;;;;;;4970068;28;20069;-76
2023/04/10 07:31:13;;;;;;;6.68;4.28;;;;;;;;;;4969518;28;20046;-77
2023/04/10 07:33:40;;;;;;;8.27;4.53;;;;;;;;;;4968880;28;20065;-72
2023/04/10 07:36:06;;;;;;;7.15;4.82;;;;;;;;;;4969303;28;20031;-78
2023/04/10 07:38:32;;;;;;;6.32;4.72;;;;;;;;;;4969753;28;20403;-73
2023/04/10 07:40:58;;;;;;;7.97;4.88;;;;;;;;;;4970224;28;20038;-78
2023/04/10 07:43:24;;;;;;;7.95;4.72;;;;;;;;;;4952923;28;20058;-76
2023/04/10 07:45:51;;;;;;;5.70;4.60;;;;;;;;;;4950577;28;20111;-78
2023/04/10 07:48:17;;;;;;;6.57;4.00;;;;;;;;;;4936372;28;20019;-72
2023/04/10 07:50:46;;;;;;;9.02;4.30;;;;;;;;;;4957551;28;20055;-76
2023/04/10 07:53:12;;;;;;;8.45;4.05;;;;;;;;;;4970131;28;20027;-77
2023/04/10 07:55:42;;;;;;;7.95;4.53;;;;;;;;;;4970403;28;20244;-76
2023/04/10 07:58:08;;;;;;;5.70;4.25;;;;;;;;;;4969086;28;20055;-79
2023/04/10 08:00:34;;;;;;;6.22;3.88;;;;;;;;;;4970949;28;20451;-74
2023/04/10 08:03:00;;;;;;;7.03;4.00;;;;;;;;;;4970097;28;20034;-78
2023/04/10 08:05:26;;;;;;;8.02;4.53;;;;;;;;;;4961062;28;20027;-79
2023/04/10 08:07:56;;;;;;;5.63;3.53;;;;;;;;;;4952005;29;20078;-77
2023/04/10 08:10:22;;;;;;;5.85;4.57;;;;;;;;;;4958950;28;20147;-78
2023/04/10 08:12:48;;;;;;;7.80;4.45;;;;;;;;;;4970192;28;20027;-78
2023/04/10 08:15:14;;;;;;;6.97;4.22;;;;;;;;;;4957436;28;20026;-73
2023/04/10 08:17:40;;;;;;;6.10;4.63;;;;;;;;;;4976308;28;20019;-78
2023/04/10 08:20:06;;;;;;;5.25;3.75;;;;;;;;;;4975676;28;20045;-78
2023/04/10 08:22:32;;;;;;;6.25;4.15;;;;;;;;;;4973597;28;20094;-77
2023/04/10 08:24:58;;;;;;;9.10;6.30;;;;;;;;;;4976678;28;20041;-74
2023/04/10 08:27:24;;;;;;;9.60;5.78;;;;;;;;;;4977824;28;20011;-76
2023/04/10 08:29:50;;;;;;;8.15;5.03;;;;;;;;;;4974189;28;20109;-78
2023/04/10 08:32:16;;;;;;;7.45;4.63;;;;;;;;;;4979299;28;20062;-75
2023/04/10 08:34:42;;;;;;;4.25;3.50;;;;;;;;;;4977996;28;20151;-75
2023/04/10 08:37:11;;;;;;;5.68;3.80;;;;;;;;;;4979197;28;20187;-73
2023/04/10 08:39:37;;;;;;;4.05;3.65;;;;;;;;;;4961727;28;20318;-75
2023/04/10 08:42:03;;;;;;;14.60;7.93;;;;;;;;;;4974630;28;20106;-77
2023/04/10 08:44:29;;;;;;;5.50;4.00;;;;;;;;;;4979032;28;20200;-76
2023/04/10 08:46:57;;;;;;;4.75;3.80;;;;;;;;;;4978465;28;20027;-75
2023/04/10 08:49:24;;;;;;;5.50;4.40;;;;;;;;;;4977530;28;20041;-76
2023/04/10 08:51:55;;;;;;;6.93;4.57;;;;;;;;;;4978503;28;20053;-77
2023/04/10 08:54:25;;;;;;;5.47;3.95;;;;;;;;;;4978390;28;20051;-77
2023/04/10 08:56:53;;;;;;;5.93;4.10;;;;;;;;;;4979450;28;20246;-78
2023/04/10 08:59:19;;;;;;;4.35;3.53;;;;;;;;;;4976955;28;20142;-79
2023/04/10 09:02:03;;;;;;;7.65;4.00;;;;;;;;;;4978027;28;20322;-76
2023/04/10 09:04:30;;;;;;;5.38;3.78;;;;;;;;;;4979034;28;20033;-82
2023/04/10 09:06:56;;;;;;;7.65;3.92;;;;;;;;;;4979850;28;20086;-79
2023/04/10 09:09:22;;;;;;;6.28;3.65;;;;;;;;;;4977035;28;20077;-76
2023/04/10 09:11:54;;;;;;;4.55;3.47;;;;;;;;;;4977895;28;20277;-74
2023/04/10 09:14:24;;;;;;;5.53;3.90;;;;;;;;;;4977528;28;20073;-77
2023/04/10 09:16:51;;;;;;;4.97;3.67;;;;;;;;;;4978056;28;20022;-75
2023/04/10 09:19:29;;;;;;;4.28;3.38;;;;;;;;;;4978389;28;20019;-79
2023/04/10 09:21:55;;;;;;;6.63;4.30;;;;;;;;;;4978978;28;20342;-78
2023/04/10 09:24:22;;;;;;;6.30;3.97;;;;;;;;;;4960604;28;20035;-78
2023/04/10 09:26:48;;;;;;;4.35;3.40;;;;;;;;;;4958655;28;20034;-74
2023/04/10 09:29:18;;;;;;;6.18;3.88;;;;;;;;;;4958056;28;20054;-78
2023/04/10 09:31:45;;;;;;;5.40;3.95;;;;;;;;;;4962307;28;20114;-78
2023/04/10 09:34:16;;;;;;;5.95;3.83;;;;;;;;;;4978178;28;20345;-78
2023/04/10 09:36:43;;;;;;;3.97;3.13;;;;;;;;;;4979565;28;20033;-77
2023/04/10 09:39:10;;;;;;;6.70;3.70;;;;;;;;;;4978462;28;20288;-79
2023/04/10 09:41:48;;;;;;;4.30;3.90;;;;;;;;;;4981810;28;20097;-76
2023/04/10 09:44:17;;;;;;;6.25;3.50;;;;;;;;;;4965281;28;20270;-73
2023/04/10 09:46:43;;;;;;;4.90;3.50;;;;;;;;;;4982463;28;20033;-75
2023/04/10 09:49:09;;;;;;;4.88;3.50;;;;;;;;;;4964356;28;20023;-73
2023/04/10 09:51:35;;;;;;;5.35;3.05;;;;;;;;;;4982214;28;20114;-74
2023/04/10 09:54:03;;;;;;;5.68;3.60;;;;;;;;;;4982366;28;20022;-78
2023/04/10 09:56:30;;;;;;;4.45;3.17;;;;;;;;;;4975203;28;20031;-78
2023/04/10 09:58:59;;;;;;;3.20;2.63;;;;;;;;;;4971033;28;20101;-75
2023/04/10 10:01:29;;;;;;;4.45;3.42;;;;;;;;;;4971784;28;20027;-74
2023/04/10 10:03:55;;;;;;;4.88;3.50;;;;;;;;;;4969589;28;20376;-75
2023/04/10 10:06:22;;;;;;;4.40;3.25;;;;;;;;;;4971157;28;20051;-74
2023/04/10 10:08:48;;;;;;;3.70;3.15;;;;;;;;;;4970292;28;20570;-76
2023/04/10 10:11:18;;;;;;;4.45;3.42;;;;;;;;;;4970444;28;20051;-74
2023/04/10 10:13:52;;;;;;;5.07;3.75;;;;;;;;;;4968872;28;20499;-76
2023/04/10 10:16:20;;;;;;;3.10;2.90;;;;;;;;;;4970149;28;20479;-74
2023/04/10 10:19:01;;;;;;;5.65;3.97;;;;;;;;;;4968926;28;20019;-77
2023/04/10 10:21:29;;;;;;;5.38;3.95;;;;;;;;;;4971423;28;20643;-74
2023/04/10 10:23:56;;;;;;;4.75;3.25;;;;;;;;;;4968688;28;20118;-73
2023/04/10 10:26:23;;;;;;;4.03;3.35;;;;;;;;;;4969074;28;20033;-74
2023/04/10 10:28:51;;;;;;;4.97;3.65;;;;;;;;;;4969066;28;20066;-76
2023/04/10 10:31:18;;;;;;;3.23;2.93;;;;;;;;;;4970501;28;20066;-74
2023/04/10 10:33:46;;;;;;;5.38;3.10;;;;;;;;;;4971321;28;20100;-78
2023/04/10 10:36:13;;;;;;;3.90;3.03;;;;;;;;;;4968489;28;20596;-73
2023/04/10 10:38:47;;;;;;;3.17;2.88;;;;;;;;;;4969284;28;20077;-77
2023/04/10 10:41:30;;;;;;;4.53;3.22;;;;;;;;;;4969699;28;20031;-78
2023/04/10 10:44:14;;;;;;;4.63;2.90;;;;;;;;;;4968542;28;20033;-74
2023/04/10 10:46:42;;;;;;;3.70;2.55;;;;;;;;;;4969505;28;20038;-79
2023/04/10 10:49:08;;;;;;;3.97;3.03;;;;;;;;;;4968421;28;20466;-75
2023/04/10 10:51:47;;;;;;;3.97;2.80;;;;;;;;;;4969508;28;20039;-77
2023/04/10 10:54:29;;;;;;;4.68;3.40;;;;;;;;;;4968243;28;20239;-77
2023/04/10 10:56:55;;;;;;;6.82;3.10;;;;;;;;;;4968878;28;20057;-76
2023/04/10 10:59:40;;;;;;;8.25;2.58;;;;;;;;;;4957659;28;20055;-75
2023/04/10 11:02:16;;;;;;;4.35;2.97;;;;;;;;;;4933195;29;20094;-73
2023/04/10 11:04:45;;;;;;;3.65;2.33;;;;;;;;;;4950818;28;20031;-75
2023/04/10 11:07:12;;;;;;;;;;;;;;;;;;4950952;28;20063;-79
2023/04/10 11:09:49;;;;;;;3.25;2.53;;;;;;;;;;4932781;28;19922;-75
2023/04/10 11:12:16;;;;;;;2.45;2.20;;;;;;;;;;4950410;28;20439;-84
2023/04/10 11:14:43;;;;;;;4.28;2.65;;;;;;;;;;4976782;28;20182;-75
2023/04/10 11:17:10;;;;;;;2.90;2.58;;;;;;;;;;4984943;28;20033;-86
2023/04/10 11:19:55;;;;;;;2.80;2.55;;;;;;;;;;4972825;28;20026;-75
2023/04/10 11:22:21;;;;;;;4.03;2.88;;;;;;;;;;4978152;28;20026;-78
2023/04/10 11:25:01;;;;;;;2.97;2.67;;;;;;;;;;4973163;28;20034;-75
2023/04/10 11:27:40;;;;;;;3.00;2.67;;;;;;;;;;4955795;28;20475;-74
2023/04/10 11:30:25;;;;;;;3.88;2.45;;;;;;;;;;4970633;28;20039;-74
2023/04/10 11:32:52;;;;;;;2.90;2.60;;;;;;;;;;4957820;28;20038;-77
2023/04/10 11:35:19;;;;;;;3.90;2.65;;;;;;;;;;4973765;28;20029;-77
2023/04/10 11:37:45;;;;;;;3.40;2.58;;;;;;;;;;4978266;28;20076;-74
2023/04/10 11:40:11;;;;;;;2.42;2.22;;;;;;;;;;4974521;28;20029;-76
2023/04/10 11:42:38;;;;;;;3.40;2.55;;;;;;;;;;4971405;28;20113;-78
2023/04/10 11:45:24;;;;;;;2.28;2.00;;;;;;;;;;4968539;28;20033;-73
2023/04/10 11:47:54;;;;;;;3.00;2.30;;;;;;;;;;4968796;28;20031;-77
2023/04/10 11:50:20;;;;;;;2.35;2.10;;;;;;;;;;4968945;28;20019;-77
2023/04/10 11:52:50;;;;;;;3.00;2.70;;;;;;;;;;4952124;28;20030;-78
2023/04/10 11:55:16;;;;;;;2.72;2.53;;;;;;;;;;4969119;28;20023;-77
2023/04/10 11:57:43;;;;;;;3.22;2.53;;;;;;;;;;4968975;28;20062;-75
2023/04/10 12:00:10;;;;;;;2.85;2.53;;;;;;;;;;4968990;28;20117;-77
2023/04/10 12:02:49;;;;;;;3.20;2.30;;;;;;;;;;4967792;28;20026;-78
2023/04/10 12:05:15;;;;;;;2.70;2.47;;;;;;;;;;4968828;28;20444;-77
2023/04/10 12:07:42;;;;;;;2.92;2.38;;;;;;;;;;4968192;28;20061;-77
2023/04/10 12:10:08;;;;;;;1.70;1.60;;;;;;;;;;4970696;28;20386;-76
2023/04/10 12:12:36;;;;;;;2.25;2.05;;;;;;;;;;4967325;28;20085;-76
2023/04/10 12:15:02;;;;;;;2.30;2.10;;;;;;;;;;4966853;28;20340;-80
2023/04/10 12:17:28;;;;;;;3.17;2.50;;;;;;;;;;4967079;28;20027;-78
2023/04/10 12:19:54;;;;;;;3.35;2.38;;;;;;;;;;4967987;28;20023;-77
2023/04/10 12:22:20;;;;;;;2.83;2.08;;;;;;;;;;4968294;28;20054;-76
2023/04/10 12:24:47;;;;;;;1.95;1.85;;;;;;;;;;4966830;28;20085;-74
2023/04/10 12:27:27;;;;;;;4.85;2.15;;;;;;;;;;4967880;28;20035;-77
2023/04/10 12:29:54;;;;;;;2.35;2.15;;;;;;;;;;4968426;28;20093;-75
2023/04/10 12:32:21;;;;;;;2.63;2.30;;;;;;;;;;4966207;28;20065;-76
2023/04/10 12:34:50;;;;;;;4.40;2.40;;;;;;;;;;4967152;28;20029;-79
2023/04/10 12:37:17;;;;;;;3.72;2.67;;;;;;;;;;4967782;28;20054;-80
2023/04/10 12:39:43;;;;;;;2.22;1.92;;;;;;;;;;4967845;28;20054;-78
2023/04/10 12:42:19;;;;;;;4.05;2.40;;;;;;;;;;4966672;28;20077;-80
2023/04/10 12:44:56;;;;;;;2.35;2.15;;;;;;;;;;4969675;28;20051;-76
2023/04/10 12:47:22;;;;;;;2.20;2.00;;;;;;;;;;4966059;28;20090;-77
2023/04/10 12:50:07;;;;;;;2.75;2.10;;;;;;;;;;4966386;28;20037;-78
2023/04/10 12:52:33;;;;;;;3.85;2.55;;;;;;;;;;4967427;28;20045;-78
2023/04/10 12:55:10;;;;;;;3.38;2.40;;;;;;;;;;4968764;28;20319;-78
2023/04/10 12:57:37;;;;;;;2.65;2.20;;;;;;;;;;4966243;28;20387;-76
2023/04/10 13:00:03;;;;;;;2.72;2.05;;;;;;;;;;4967164;28;20030;-75
2023/04/10 13:02:29;;;;;;;2.42;2.22;;;;;;;;;;4969923;28;20034;-74
2023/04/10 13:04:55;;;;;;;2.75;2.38;;;;;;;;;;4967206;28;20480;-76
2023/04/10 13:07:24;;;;;;;3.08;2.40;;;;;;;;;;4966781;28;20029;-75
2023/04/10 13:09:50;;;;;;;2.63;2.35;;;;;;;;;;4962718;28;20047;-75
2023/04/10 13:12:16;;;;;;;2.00;1.90;;;;;;;;;;4958077;28;20054;-75
2023/04/10 13:14:42;;;;;;;3.22;2.17;;;;;;;;;;4967642;28;20541;-75
2023/04/10 13:17:08;;;;;;;2.72;2.40;;;;;;;;;;4955868;28;20133;-76
2023/04/10 13:19:34;;;;;;;2.25;2.03;;;;;;;;;;4961560;28;20092;-77
2023/04/10 13:22:00;;;;;;;2.25;2.05;;;;;;;;;;4970420;28;20042;-76
2023/04/10 13:24:26;;;;;;;2.30;2.10;;;;;;;;;;4970647;28;20046;-76
2023/04/10 13:26:53;;;;;;;2.58;2.10;;;;;;;;;;4970407;28;20035;-76
2023/04/10 13:29:19;;;;;;;3.25;2.58;;;;;;;;;;4970052;28;20027;-75
2023/04/10 13:31:45;;;;;;;3.10;2.60;;;;;;;;;;4952908;28;20446;-76
2023/04/10 13:34:11;;;;;;;2.83;2.47;;;;;;;;;;4950827;28;20666;-77
2023/04/10 13:36:37;;;;;;;2.70;2.25;;;;;;;;;;4969724;28;20035;-77
2023/04/10 13:39:03;;;;;;;2.53;2.33;;;;;;;;;;4967509;28;20495;-79
2023/04/10 13:41:29;;;;;;;3.55;2.20;;;;;;;;;;4963618;28;20026;-77
2023/04/10 13:43:55;;;;;;;2.97;2.22;;;;;;;;;;4935491;29;20023;-78
2023/04/10 13:46:21;;;;;;;2.53;2.00;;;;;;;;;;4949964;29;20043;-76
2023/04/10 13:48:47;;;;;;;2.55;2.40;;;;;;;;;;4944711;28;20763;-79
2023/04/10 13:51:13;;;;;;;3.72;3.25;;;;;;;;;;4956472;28;20192;-77
2023/04/10 13:53:39;;;;;;;3.00;2.70;;;;;;;;;;4952747;28;20419;-74
2023/04/10 13:56:05;;;;;;;4.40;2.55;;;;;;;;;;4955058;28;20035;-75
2023/04/10 13:58:33;;;;;;;2.92;2.70;;;;;;;;;;4939872;28;20022;-76
2023/04/10 14:00:59;;;;;;;2.75;2.53;;;;;;;;;;4935781;29;20019;-75
2023/04/10 14:03:25;;;;;;;2.95;2.40;;;;;;;;;;4965858;28;20018;-76
2023/04/10 14:05:51;;;;;;;3.50;2.58;;;;;;;;;;4957186;28;20061;-76
2023/04/10 14:08:18;;;;;;;2.60;2.40;;;;;;;;;;4952357;28;20035;-76
2023/04/10 14:10:49;;;;;;;4.25;2.42;;;;;;;;;;4940802;28;20526;-75
2023/04/10 14:13:15;;;;;;;2.85;2.55;;;;;;;;;;4950591;29;20062;-77
2023/04/10 14:15:42;;;;;;;5.70;3.15;;;;;;;;;;4933653;29;20054;-77
2023/04/10 14:18:08;;;;;;;2.65;2.20;;;;;;;;;;4933121;29;20127;-78
2023/04/10 14:20:34;;;;;;;3.03;2.70;;;;;;;;;;4934159;29;20023;-79
2023/04/10 14:23:00;;;;;;;2.50;2.28;;;;;;;;;;4950889;28;20031;-76
2023/04/10 14:25:26;;;;;;;3.10;2.80;;;;;;;;;;4963354;28;20023;-76
2023/04/10 14:27:54;;;;;;;2.42;2.22;;;;;;;;;;4965078;28;20400;-76
2023/04/10 14:30:20;;;;;;;3.03;2.35;;;;;;;;;;4953924;28;20023;-76
2023/04/10 14:32:46;;;;;;;2.85;2.35;;;;;;;;;;4960595;28;20077;-80
2023/04/10 14:35:12;;;;;;;2.33;1.80;;;;;;;;;;4949388;28;20054;-77
2023/04/10 14:37:38;;;;;;;1.92;1.83;;;;;;;;;;4957854;28;20027;-75
2023/04/10 14:40:05;;;;;;;3.20;1.75;;;;;;;;;;4968787;28;20540;-75
2023/04/10 14:42:31;;;;;;;2.53;2.33;;;;;;;;;;4969375;28;20023;-75
2023/04/10 14:45:00;;;;;;;2.55;1.90;;;;;;;;;;4960979;28;20122;-75